Aviation Digital Data Service (ADDS)

Output produced by METARs form (0743 UTC 24 May 2018)
found at http://www.aviationweather.gov/adds/metars/
 
VTBD 240730Z 18011KT 140V210 9999 FEW020 32/24 Q1007 NOSIG
TAF VTBD 240500Z 2406/2512 19008KT 9999 FEW020 
     BECMG 2418/2420 10005KT 
     TEMPO 2423/2504 VRB15KT 6000 -TSRA FEW018CB SCT030 
     BECMG 2504/2506 19008KT
       
VTUO 240700Z 00000KT 8000 TS VCSH FEW015CB SCT020 BKN090 26/25 Q1009 NOSIG
TAF VTUO 240500Z 2406/2506 19003KT 8000 FEW025 
     TEMPO 2410/2413 VRB10KT 5000 TSRA FEW018CB BKN020 OVC100 
     BECMG 2420/2422 5000 BR 
     BECMG 2500/2502 8000 NSW
       
VTCC 240730Z 19005KT 9999 FEW025CB SCT035 32/21 Q1009 NOSIG
TAF VTCC 240500Z 2406/2512 20005KT 9999 SCT035 EMPO 2408/2415 VRB15G30KT 5000 TSRA FEW020CB BKN030
       
VTCT 240700Z 13006KT 9999 SCT020 28/24 Q1009 NOSIG
TAF VTCT 240500Z 2406/2512 18005KT 9999 SCT035 
     TEMPO 2408/2415 VRB15G30KT 5000 TSRA FEW020CB BKN030
       
VTSE 240700Z VRB04KT 9999 FEW020 BKN100 31/25 Q1007 NOSIG
TAF VTSE 240500Z 2406/2506 23006KT 9999 SCT020 
     TEMPO 2406/2410 VRB10G20KT 6000 -TSRA FEW016CB SCT018 BKN100
       
VTSS 240730Z 25007KT 9999 FEW020 BKN100 30/25 Q1007 NOSIG
TAF VTSS 240500Z 2406/2506 24006KT 9999 SCT020 BKN100 
     TEMPO 2406/2412 VRB10G20KT 6000 -TSRA FEW016CB SCT018 BKN100
       
VTPH 240700Z 14012KT 9999 FEW030 31/26 Q1007 NOSIG
TAF VTPH 240500Z 2406/2506 14008KT 9999 FEW028 SCT100 
     BECMG 2414/2416 00000KT 
     TEMPO 2422/2424 24005KT 
     BECMG 2503/2505 12008KT
       
VTUK 240700Z 00000KT 8000 SCT020 BKN080 26/23 Q1007 RETS NOSIG
TAF VTUK 240500Z 2406/2506 14005KT 9000 SCT020 
     TEMPO 2407/2414 5000 TSRA FEW020CB
       
VTSG 240700Z VRB02KT 8000 -RA SCT020 BKN100 27/25 Q1009 NOSIG
TAF AMD VTSG 240535Z 2406/2506 16008KT 8000 -RA SCT020 BKN100 
     TEMPO 2406/2412 VRB10G20KT 3000 TSRA FEW018CB SCT020 BKN100 
     BECMG 2412/2414 00000KT NSW 
     BECMG 2418/2420 3000 BR FEW020 
     BECMG 2501/2503 12008KT 9999 NSW FEW020 SCT100
       
VTCL 240700Z VRB02KT 9999 SCT025 33/24 Q1008 NOSIG
TAF VTCL 240500Z 2406/2506 17005KT 9999 SCT035 
     TEMPO 2408/2415 VRB15G30KT 5000 TSRA FEW020CB BKN030
       
VTUL 240700Z 03004KT 350V070 9999 SCT020 BKN070 30/23 Q1008 NOSIG
TAF VTUL 240500Z 2406/2506 VRB02KT 6000 BKN015 
     TEMPO 2407/2414 5000 TSRA FEW015CB
       
VTCH 240700Z 31003KT 9999 SCT025 32/20 Q1007 NOSIG
TAF VTCH 240500Z 2406/2506 20005KT 9999 SCT025 
     TEMPO 2408/2415 VRB15G30KT 5000 TSRA FEW020CB BKN030
       
VTPM 240700Z 24008KT 210V300 9999 VCSH FEW020CB SCT025 34/21 Q1008
TAF VTPM 240500Z 2406/2506 23005KT 9999 SCT035 
     TEMPO 2408/2415 VRB15G30KT 5000 TSRA FEW020CB BKN030
       
VTUW 240700Z VRB04KT 9999 SCT025 32/23 Q1007 NOSIG
TAF VTUW 240500Z 2406/2506 14005KT 9999 SCT020 
     TEMPO 2407/2414 5000 TSRA FEW015CB
       
VTUQ 240700Z VRB04KT 9000 SCT025 BKN100 34/25 Q1008 NOSIG
TAF VTUQ 240500Z 2406/2506 20003KT 8000 FEW025 
     TEMPO 2410/2413 VRB10KT 5000 TSRA FEW018CB BKN020 OVC100
       
VTSF 240700Z 32003KT 270V010 9999 SCT020 25/24 Q1008 NOSIG
TAF VTSF 240500Z 2406/2506 21005KT 9999 SCT020 BKN100 
     TEMPO 2406/2412 VRB10G20KT 3000 TSRA FEW016CB SCT018 BKN100
       
VTCN 240700Z VRB02KT 9999 SCT025 32/22 Q1007 NOSIG
TAF VTCN 240500Z 2406/2506 17005KT 9999 SCT035 
     TEMPO 2408/2415 VRB15G30KT 5000 TSRA FEW020CB BKN030
       
VTSC 240700Z 06009KT 030V090 9999 FEW020 31/24 Q1007 NOSIG
TAF VTSC 240500Z 2406/2506 30006KT 9999 FEW020 BKN100 
     TEMPO 2409/2415 VRB10G20KT 6000 -TSRA FEW016CB SCT018 BKN100
       
VTSK 240500Z 24005KT 9999 FEW025 SCT030 BKN100 33/24 Q1009
TAF VTSK 240500Z 2406/2506 12006KT 9999 FEW020 SCT100 
     TEMPO 2409/2415 VRB10G20KT 6000 -TSRA FEW016CB SCT018 BKN100
       
VTPB 240700Z 29005KT 260V330 8000 TS FEW025CB SCT030 30/26 Q1007 NOSIG
TAF VTPB 240500Z 2406/2506 18005KT 8000 SCT035 
     TEMPO 2408/2415 VRB15G30KT 5000 TSRA FEW020CB BKN030
       
VTPP 240700Z 15008KT 8000 TS FEW020CB BKN025 30/23 Q1007 TEMPO IL0830 5000 TSRA
TAF VTPP 240500Z 2406/2506 15005KT 9999 SCT035 
     TEMPO 2408/2415 VRB15G30KT 5000 TSRA FEW020CB BKN030
       
VTCP 240700Z 25007KT 210V280 9999 SCT020 BKN025 BKN100 31/23 Q1007 NOSIG
TAF VTCP 240500Z 2406/2506 20005KT 8000 SCT035 BKN100 
     TEMPO 2408/2415 VRB15G30KT 5000 TSRA FEW020CB BKN030
       
VTSP 240730Z 00000KT 9999 FEW020 BKN100 27/24 Q1007 NOSIG
TAF AMD VTSP 240535Z 2406/2512 10008KT 8000 -RA SCT020 BKN100 
     TEMPO 2406/2412 VRB10G20KT 3000 TSRA FEW018CB SCT020 BKN100 
     BECMG 2412/2414 VRB02KT NSW 
     BECMG 2500/2502 10008KT 9999 
     TEMPO 2504/2510 VRB10G20KT 5000 TSRA FEW018CB SCT020 BKN100
       
VTSR 240700Z 09005KT 030V160 1500 +TSRA FEW015CB SCT030 BKN100 25/25 Q1008 NOSIG
TAF AMD VTSR 240535Z 2406/2506 14006KT 9999 SCT030 BKN100 
     TEMPO 2406/2412 VRB10G20KT 3000 TSRA FEW018CB SCT020 BKN100 
     BECMG 2412/2414 VRB02KT 8000 FEW020 
     BECMG 2502/2504 26006KT 9999 FEW020 SCT100
       
VTUV 240700Z VRB04KT 9999 VCSH FEW020CB SCT025 32/23 Q1007 NOSIG
TAF VTUV 240500Z 2406/2506 20003KT 9000 FEW025 SCT080 
     TEMPO 2410/2413 VRB10KT 5000 TSRA FEW018CB BKN020 OVC100 
     BECMG 2421/2423 5000 BR 
     BECMG 2500/2502 8000 NSW
       
VTUI 240700Z VRB03KT 9999 BKN025 31/24 Q1008 NOSIG
TAF VTUI 240500Z 2406/2506 13005KT 9999 SCT025 
     TEMPO 2407/2414 5000 TSRA FEW018CB
       
VTSM 240730Z 15010KT 9999 SCT020 29/26 Q1009 NOSIG
TAF VTSM 240500Z 2406/2506 15006KT 9999 SCT020 BKN100 
     TEMPO 2406/2410 VRB10G20KT 6000 -TSRA FEW016CB SCT018 BKN100 
     TEMPO 2420/2502 VRB10G20KT 6000 -TSRA FEW016CB SCT018 BKN100
       
VTSH 240700Z 27004KT 9000 FEW018CB SCT100 26/24 Q1006 NOSIG
TAF VTSH 240500Z 2406/2506 24006KT 9999 SCT020 BKN100 
     TEMPO 2409/2413 VRB10G20KT 6000 -TSRA FEW016CB SCT018 BKN100
       
VTPO 240700Z VRB02KT 9999 SCT022 33/25 Q1006 NOSIG
TAF VTPO 240500Z 2406/2506 18005KT 9999 SCT035 
     TEMPO 2408/2415 VRB15G30KT 5000 TSRA FEW020CB BKN030
       
VTSB 240700Z 21003KT 4000 TSRA FEW016CB SCT018 BKN100 25/24 Q1010
TAF VTSB 240500Z 2406/2506 24006KT 9999 SCT020 
     PROB40 
     TEMPO 2407/2412 VRB10G20KT 6000 -TSRA FEW016CB SCT018 BKN100 
     BECMG 2420/2422 5000 BR 
     BECMG 2501/2503 9999 NSW
       
TAF VTPT 240500Z 2406/2506 21005KT 9999 SCT035 
     TEMPO 2408/2415 VRB15G30KT 5000 TSRA FEW020CB BKN030
       
VTST 240700Z 19004KT 7000 VCSH SCT018 SCT022 BKN100 29/26 Q1007
TAF AMD VTST 240535Z 2406/2506 16008KT 8000 -RA SCT020 BKN100 
     TEMPO 2406/2412 VRB10G20KT 3000 TSRA FEW018CB SCT020 BKN100 
     BECMG 2412/2414 VRB02KT NSW 
     BECMG 2418/2420 00000KT 1500 BR FEW020 
     BECMG 2502/2504 24006KT 9999 NSW FEW020 SCT100
       
VTBU 240730Z 18006KT 9999 FEW020CB SCT100 28/22 Q1008 NOSIG
TAF VTBU 240500Z 2406/2506 25006KT 8000 FEW020CB SCT100 
     TEMPO 2408/2412 VRB12KT 5000 -TSRA FEW018CB SCT030 BKN100 
     BECMG 2412/2414 VRB03KT 6000
       
VTUU 240700Z 09006KT 9999 SCT025 33/25 Q1007 NOSIG
TAF VTUU 240500Z 2406/2506 18003KT 9000 FEW025 SCT040 
     TEMPO 2410/2413 VRB10KT 5000 TSRA FEW018CB BKN020 OVC100
       
VTUD 240700Z 08007KT 020V130 8000 TSRA FEW018CB BKN030 27/23 Q1008 TEMPO TL0730 3000 TSRA
TAF VTUD 240500Z 2406/2506 16005KT 9999 SCT025 
     TEMPO 2407/2414 5000 TSRA FEW020CB